createdAt,value
2022-09-09T00:01:26.764Z,13.60
2022-09-09T00:04:17.499Z,13.60
2022-09-09T00:06:47.773Z,13.60
2022-09-09T00:09:19.491Z,13.60
2022-09-09T00:11:49.119Z,13.60
2022-09-09T00:14:24.251Z,13.50
2022-09-09T00:16:55.399Z,13.50
2022-09-09T00:19:30.255Z,13.50
2022-09-09T00:21:58.814Z,13.50
2022-09-09T00:24:33.330Z,13.50
2022-09-09T00:27:07.438Z,13.60
2022-09-09T00:29:46.274Z,13.60
2022-09-09T00:32:17.762Z,13.60
2022-09-09T00:35:04.934Z,13.60
2022-09-09T00:37:33.520Z,13.60
2022-09-09T00:40:03.636Z,13.60
2022-09-09T00:42:41.748Z,13.70
2022-09-09T00:45:21.030Z,13.70
2022-09-09T00:47:52.036Z,13.70
2022-09-09T00:50:30.859Z,13.70
2022-09-09T00:53:18.911Z,13.70
2022-09-09T00:55:51.700Z,13.70
2022-09-09T00:58:19.074Z,13.70
2022-09-09T01:00:56.557Z,13.70
2022-09-09T01:03:31.982Z,13.70
2022-09-09T01:06:18.378Z,13.70
2022-09-09T01:08:51.795Z,13.80
2022-09-09T01:11:22.386Z,13.80
2022-09-09T01:13:54.364Z,13.80
2022-09-09T01:16:21.874Z,13.80
2022-09-09T01:18:54.037Z,13.80
2022-09-09T01:21:21.435Z,13.90
2022-09-09T01:23:50.122Z,13.90
2022-09-09T01:26:38.599Z,13.90
2022-09-09T01:29:15.024Z,13.90
2022-09-09T01:31:53.928Z,13.90
2022-09-09T01:34:22.831Z,13.90
2022-09-09T01:36:53.259Z,13.90
2022-09-09T01:39:21.311Z,13.90
2022-09-09T01:41:56.798Z,14.00
2022-09-09T01:44:25.587Z,14.00
2022-09-09T01:46:52.924Z,14.00
2022-09-09T01:49:22.797Z,14.00
2022-09-09T01:51:52.546Z,14.10
2022-09-09T01:54:27.037Z,14.10
2022-09-09T01:57:08.508Z,14.10
2022-09-09T01:59:48.572Z,14.10
2022-09-09T02:02:20.423Z,14.20
2022-09-09T02:05:14.749Z,14.20
2022-09-09T02:07:43.567Z,14.20
2022-09-09T02:10:44.098Z,14.20
2022-09-09T02:13:18.867Z,14.30
2022-09-09T02:15:46.264Z,14.30
2022-09-09T02:18:15.024Z,14.30
2022-09-09T02:20:44.314Z,14.30
2022-09-09T02:23:12.387Z,14.30
2022-09-09T02:25:41.338Z,14.40
2022-09-09T02:28:22.321Z,14.30
2022-09-09T02:30:59.809Z,14.30
2022-09-09T02:33:54.840Z,14.30
2022-09-09T02:36:23.159Z,14.40
2022-09-09T02:38:53.975Z,14.30
2022-09-09T02:41:26.987Z,14.40
2022-09-09T02:43:55.807Z,14.30
2022-09-09T02:46:43.528Z,14.40
2022-09-09T02:49:17.236Z,14.40
2022-09-09T02:51:47.639Z,14.40
2022-09-09T02:54:15.361Z,14.50
2022-09-09T02:56:44.877Z,14.50
2022-09-09T02:59:13.845Z,14.50
2022-09-09T03:01:42.216Z,14.50
2022-09-09T03:04:11.125Z,14.50
2022-09-09T03:06:40.194Z,14.60
2022-09-09T03:09:17.275Z,14.50
2022-09-09T03:11:44.738Z,14.60
2022-09-09T03:14:13.144Z,14.60
2022-09-09T03:16:41.655Z,14.60
2022-09-09T03:19:09.074Z,14.60
2022-09-09T03:21:36.809Z,14.60
2022-09-09T03:24:04.496Z,14.60
2022-09-09T03:26:32.861Z,14.60
2022-09-09T03:29:01.584Z,14.60
2022-09-09T03:31:31.302Z,14.60
2022-09-09T03:34:00.163Z,14.60
2022-09-09T03:36:31.253Z,14.60
2022-09-09T03:38:59.156Z,14.60
2022-09-09T03:41:29.750Z,14.60
2022-09-09T03:43:57.567Z,14.60
2022-09-09T03:46:26.962Z,14.60
2022-09-09T03:48:55.455Z,14.60
2022-09-09T03:51:23.090Z,14.60
2022-09-09T03:53:51.363Z,14.60
2022-09-09T03:56:18.942Z,14.60
2022-09-09T03:58:46.710Z,14.60
2022-09-09T04:01:14.955Z,14.60
2022-09-09T04:03:44.493Z,14.60
2022-09-09T04:06:14.401Z,14.50
2022-09-09T04:08:43.711Z,14.60
2022-09-09T04:11:11.063Z,14.50
2022-09-09T04:13:40.267Z,14.50
2022-09-09T04:16:11.404Z,14.50
2022-09-09T04:18:39.967Z,14.50
2022-09-09T04:21:08.967Z,14.50
2022-09-09T04:23:37.144Z,14.50
2022-09-09T04:26:05.981Z,14.50
2022-09-09T04:28:35.582Z,14.50
2022-09-09T04:31:08.013Z,14.50
2022-09-09T04:33:39.914Z,14.50
2022-09-09T04:36:09.135Z,14.50
2022-09-09T04:38:37.106Z,14.50
2022-09-09T04:41:05.649Z,14.40
2022-09-09T04:43:35.411Z,14.40
2022-09-09T04:46:05.445Z,14.40
2022-09-09T04:48:33.404Z,14.40
2022-09-09T04:51:03.876Z,14.40
2022-09-09T04:53:32.746Z,14.40
2022-09-09T04:56:07.875Z,14.40
2022-09-09T04:58:40.410Z,14.40
2022-09-09T05:01:09.308Z,14.40
2022-09-09T05:03:38.777Z,14.40
2022-09-09T05:06:11.211Z,14.40
2022-09-09T05:08:39.599Z,14.40
2022-09-09T05:11:21.316Z,14.40
2022-09-09T05:13:49.081Z,14.40
2022-09-09T05:16:16.784Z,14.40
2022-09-09T05:18:45.557Z,14.40
2022-09-09T05:21:14.089Z,14.40
2022-09-09T05:23:42.157Z,14.40
2022-09-09T05:26:17.495Z,14.50
2022-09-09T05:28:47.232Z,14.40
2022-09-09T05:31:15.823Z,14.50
2022-09-09T05:33:46.687Z,14.40
2022-09-09T05:36:16.303Z,14.40
2022-09-09T05:38:44.255Z,14.40
2022-09-09T05:41:12.418Z,14.40
2022-09-09T05:43:40.059Z,14.40
2022-09-09T05:46:09.175Z,14.40
2022-09-09T05:48:38.431Z,14.40
2022-09-09T05:51:07.907Z,14.30
2022-09-09T05:53:36.492Z,14.30
2022-09-09T05:56:05.209Z,14.30
2022-09-09T05:58:35.157Z,14.30
2022-09-09T06:01:04.634Z,14.30
2022-09-09T06:03:33.097Z,14.30
2022-09-09T06:06:01.632Z,14.30
2022-09-09T06:08:29.482Z,14.30
2022-09-09T06:11:03.304Z,14.30
2022-09-09T06:13:31.577Z,14.30
2022-09-09T06:15:59.591Z,14.40
2022-09-09T06:18:28.038Z,14.40
2022-09-09T06:20:56.395Z,14.50
2022-09-09T06:23:23.801Z,14.50
2022-09-09T06:25:52.038Z,14.50
2022-09-09T06:28:20.182Z,14.60
2022-09-09T06:30:48.229Z,14.60
2022-09-09T06:33:16.248Z,14.60
2022-09-09T06:35:44.373Z,14.70
2022-09-09T06:38:11.986Z,14.70
2022-09-09T06:40:40.737Z,14.80
2022-09-09T06:43:08.934Z,14.90
2022-09-09T06:45:41.839Z,14.90
2022-09-09T06:48:09.958Z,14.90
2022-09-09T06:50:37.439Z,15.00
2022-09-09T06:53:05.378Z,15.00
2022-09-09T06:55:32.687Z,15.10
2022-09-09T06:58:01.217Z,15.10
2022-09-09T07:00:28.955Z,15.20
2022-09-09T07:02:56.976Z,15.20
2022-09-09T07:05:24.336Z,15.30
2022-09-09T07:07:53.217Z,15.30
2022-09-09T07:10:22.432Z,15.30
2022-09-09T07:12:54.235Z,15.40
2022-09-09T07:15:24.672Z,15.40
2022-09-09T07:17:53.900Z,15.50
2022-09-09T07:20:21.816Z,15.60
2022-09-09T07:22:49.496Z,15.60
2022-09-09T07:25:18.984Z,15.70
2022-09-09T07:27:47.444Z,15.70
2022-09-09T07:30:21.068Z,15.80
2022-09-09T07:32:53.189Z,15.80
2022-09-09T07:35:21.210Z,15.90
2022-09-09T07:37:50.960Z,15.90
2022-09-09T07:40:21.776Z,16.00
2022-09-09T07:42:49.608Z,16.00
2022-09-09T07:45:18.110Z,16.10
2022-09-09T07:47:45.658Z,16.10
2022-09-09T07:50:13.070Z,16.20
2022-09-09T07:52:40.485Z,16.30
2022-09-09T07:55:10.282Z,16.40
2022-09-09T07:57:38.627Z,16.50
2022-09-09T08:00:06.390Z,16.50
2022-09-09T08:02:39.880Z,16.50
2022-09-09T08:05:08.423Z,16.50
2022-09-09T08:07:37.013Z,16.50
2022-09-09T08:10:04.972Z,16.50
2022-09-09T08:12:36.322Z,16.60
2022-09-09T08:15:04.917Z,16.70
2022-09-09T08:17:34.247Z,16.70
2022-09-09T08:20:06.447Z,16.70
2022-09-09T08:22:35.383Z,16.80
2022-09-09T08:25:03.203Z,16.90
2022-09-09T08:27:33.969Z,16.90
2022-09-09T08:30:01.575Z,16.90
2022-09-09T08:32:30.471Z,17.00
2022-09-09T08:35:01.087Z,17.00
2022-09-09T08:37:30.106Z,17.10
2022-09-09T08:39:57.888Z,17.20
2022-09-09T08:42:47.989Z,17.20
2022-09-09T08:45:36.602Z,17.30
2022-09-09T08:48:06.364Z,17.30
2022-09-09T08:50:36.435Z,17.40
2022-09-09T08:53:18.623Z,17.50
2022-09-09T08:55:49.577Z,17.50
2022-09-09T08:58:22.319Z,17.60
2022-09-09T09:01:10.852Z,17.60
2022-09-09T09:03:53.844Z,17.70
2022-09-09T09:06:37.324Z,17.80
2022-09-09T09:09:09.404Z,17.80
2022-09-09T09:11:38.941Z,17.80
2022-09-09T09:14:13.790Z,17.90
2022-09-09T09:16:49.012Z,17.90
2022-09-09T09:19:17.807Z,17.90
2022-09-09T09:22:01.127Z,17.90
2022-09-09T09:24:36.422Z,17.90
2022-09-09T09:27:14.819Z,18.00
2022-09-09T09:30:18.150Z,18.00
2022-09-09T09:32:35.918Z,18.10
2022-09-09T09:35:10.684Z,18.10
2022-09-09T09:40:26.111Z,18.30
2022-09-09T09:42:53.892Z,18.40
2022-09-09T09:46:18.514Z,18.50
2022-09-09T09:48:57.404Z,18.70
2022-09-09T09:51:26.034Z,18.80
2022-09-09T09:53:54.895Z,18.80
2022-09-09T09:56:33.613Z,18.90
2022-09-09T09:59:09.358Z,18.90
2022-09-09T10:01:45.809Z,18.90
2022-09-09T10:04:18.023Z,19.10
2022-09-09T10:06:45.655Z,19.10
2022-09-09T10:09:23.533Z,19.10
2022-09-09T10:11:56.966Z,19.10
2022-09-09T10:14:44.653Z,19.00
2022-09-09T10:17:21.382Z,19.20
2022-09-09T10:20:02.149Z,19.00
2022-09-09T10:22:33.685Z,19.00
2022-09-09T10:25:01.095Z,19.00
2022-09-09T10:27:55.519Z,19.10
2022-09-09T10:30:31.129Z,19.20
2022-09-09T10:33:01.741Z,19.20
2022-09-09T10:35:35.010Z,19.30
2022-09-09T10:38:22.688Z,19.50
2022-09-09T10:41:01.655Z,19.60
2022-09-09T10:43:47.855Z,19.70
2022-09-09T10:46:35.061Z,19.80
2022-09-09T10:49:05.236Z,19.90
2022-09-09T10:51:46.391Z,19.90
2022-09-09T10:54:27.148Z,19.90
2022-09-09T10:57:04.650Z,19.90
2022-09-09T10:59:34.708Z,19.80
2022-09-09T11:02:14.316Z,19.70
2022-09-09T11:04:46.229Z,19.60
2022-09-09T11:07:15.738Z,19.50
2022-09-09T11:09:46.060Z,19.50
2022-09-09T11:12:16.591Z,19.50
2022-09-09T11:14:45.846Z,19.60
2022-09-09T11:17:13.203Z,19.90
2022-09-09T11:19:42.344Z,20.20
2022-09-09T11:22:44.369Z,20.50
2022-09-09T11:25:18.157Z,20.70
2022-09-09T11:27:48.728Z,20.70
2022-09-09T11:30:53.800Z,20.70
2022-09-09T11:33:17.615Z,20.70
2022-09-09T11:35:57.132Z,20.80
2022-09-09T11:38:28.960Z,20.90
2022-09-09T11:40:59.335Z,21.00
2022-09-09T11:43:32.934Z,21.10
2022-09-09T11:46:03.983Z,21.20
2022-09-09T11:48:39.452Z,21.40
2022-09-09T11:51:16.660Z,21.60
2022-09-09T11:53:52.294Z,21.70
2022-09-09T11:56:27.601Z,21.80
2022-09-09T11:59:05.508Z,22.00
2022-09-09T12:01:39.149Z,22.00
2022-09-09T12:04:11.248Z,22.20
2022-09-09T12:07:17.408Z,22.20
2022-09-09T12:09:46.859Z,22.20
2022-09-09T12:12:14.544Z,22.10
2022-09-09T12:14:42.248Z,22.20
2022-09-09T12:17:15.835Z,22.20
2022-09-09T12:19:43.617Z,22.30
2022-09-09T12:22:19.974Z,22.30
2022-09-09T12:24:53.317Z,22.50
2022-09-09T12:27:25.028Z,22.70
2022-09-09T12:30:10.988Z,23.30
2022-09-09T12:32:39.080Z,23.70
2022-09-09T12:35:21.300Z,23.90
2022-09-09T12:37:54.923Z,23.70
2022-09-09T12:40:29.625Z,23.60
2022-09-09T12:42:57.261Z,23.50
2022-09-09T12:45:29.767Z,23.50
2022-09-09T12:47:59.518Z,23.60
2022-09-09T12:50:31.168Z,23.50
2022-09-09T12:53:00.551Z,23.50
2022-09-09T12:55:34.412Z,23.40
2022-09-09T12:58:05.626Z,23.70
2022-09-09T13:00:34.192Z,24.20
2022-09-09T13:03:03.571Z,24.90
2022-09-09T13:05:38.560Z,25.40
2022-09-09T13:08:08.481Z,25.80
2022-09-09T13:11:01.927Z,26.40
2022-09-09T13:13:43.330Z,27.00
2022-09-09T13:16:42.572Z,26.90
2022-09-09T13:19:17.548Z,26.30
2022-09-09T13:21:45.073Z,25.10
2022-09-09T13:24:32.391Z,24.00
2022-09-09T13:27:02.891Z,23.00
2022-09-09T13:29:31.299Z,21.80
2022-09-09T13:32:16.936Z,21.00
2022-09-09T13:34:55.148Z,20.40
2022-09-09T13:37:28.710Z,19.80
2022-09-09T13:39:56.208Z,19.40
2022-09-09T13:42:28.354Z,19.00
2022-09-09T13:44:57.020Z,18.80
2022-09-09T13:47:32.705Z,18.50
2022-09-09T13:50:10.951Z,18.30
2022-09-09T13:52:38.348Z,18.20
2022-09-09T13:55:07.792Z,18.10
2022-09-09T13:57:35.246Z,17.90
2022-09-09T14:00:06.499Z,17.80
2022-09-09T14:02:34.903Z,17.70
2022-09-09T14:05:02.544Z,17.60
2022-09-09T14:07:30.063Z,17.60
2022-09-09T14:09:57.448Z,17.50
2022-09-09T14:12:25.055Z,17.50
2022-09-09T14:14:52.513Z,17.50
2022-09-09T14:17:19.902Z,17.40
2022-09-09T14:19:47.840Z,17.40
2022-09-09T14:22:15.529Z,17.40
2022-09-09T14:24:46.368Z,17.40
2022-09-09T14:27:14.269Z,17.40
2022-09-09T14:29:41.712Z,17.40
2022-09-09T14:32:12.594Z,17.40
2022-09-09T14:34:40.377Z,17.40
2022-09-09T14:37:07.853Z,17.40
2022-09-09T14:39:35.730Z,17.40
2022-09-09T14:42:03.349Z,17.40
2022-09-09T14:44:31.063Z,17.50
2022-09-09T14:46:59.596Z,17.50
2022-09-09T14:49:27.039Z,17.60
2022-09-09T14:51:54.395Z,17.70
2022-09-09T14:54:24.018Z,17.90
2022-09-09T14:56:51.470Z,18.20
2022-09-09T14:59:18.828Z,18.40
2022-09-09T15:01:46.548Z,18.60
2022-09-09T15:04:15.778Z,18.90
2022-09-09T15:06:45.338Z,19.00
2022-09-09T15:09:12.823Z,19.10
2022-09-09T15:11:40.193Z,19.20
2022-09-09T15:14:08.882Z,19.30
2022-09-09T15:16:36.736Z,19.30
2022-09-09T15:19:04.318Z,19.40
2022-09-09T15:21:33.104Z,19.40
2022-09-09T15:24:00.528Z,19.50
2022-09-09T15:26:28.467Z,19.60
2022-09-09T15:28:55.899Z,19.70
2022-09-09T15:31:24.567Z,19.70
2022-09-09T15:33:53.456Z,19.70
2022-09-09T15:36:24.801Z,19.70
2022-09-09T15:38:53.115Z,19.70
2022-09-09T15:41:21.433Z,19.70
2022-09-09T15:43:51.211Z,19.60
2022-09-09T15:46:18.607Z,19.50
2022-09-09T15:48:48.133Z,19.50
2022-09-09T15:51:41.108Z,19.40
2022-09-09T15:54:05.999Z,19.40
2022-09-09T15:56:34.020Z,19.40
2022-09-09T15:59:03.458Z,19.40
2022-09-09T16:01:32.221Z,19.40
2022-09-09T16:04:00.970Z,19.50
2022-09-09T16:06:29.410Z,19.50
2022-09-09T16:08:57.692Z,19.50
2022-09-09T16:11:26.652Z,19.30
2022-09-09T16:13:54.684Z,18.90
2022-09-09T16:16:23.954Z,18.40
2022-09-09T16:18:53.387Z,18.00
2022-09-09T16:21:30.111Z,17.60
2022-09-09T16:24:00.638Z,17.20
2022-09-09T16:26:28.738Z,16.90
2022-09-09T16:28:56.279Z,16.60
2022-09-09T16:31:24.612Z,16.40
2022-09-09T16:33:52.605Z,16.20
2022-09-09T16:36:21.157Z,16.10
2022-09-09T16:38:48.844Z,15.90
2022-09-09T16:41:16.321Z,15.80
2022-09-09T16:43:43.837Z,15.70
2022-09-09T16:46:14.852Z,15.60
2022-09-09T16:48:44.220Z,15.50
2022-09-09T16:51:22.446Z,15.50
2022-09-09T16:53:50.326Z,15.50
2022-09-09T16:56:20.501Z,15.50
2022-09-09T16:58:52.207Z,15.50
2022-09-09T17:01:19.769Z,15.60
2022-09-09T17:03:47.380Z,15.60
2022-09-09T17:06:15.814Z,15.70
2022-09-09T17:08:44.014Z,15.80
2022-09-09T17:11:19.260Z,15.80
2022-09-09T17:13:47.610Z,15.80
2022-09-09T17:16:16.253Z,15.80
2022-09-09T17:18:44.054Z,15.90
2022-09-09T17:21:15.561Z,15.90
2022-09-09T17:23:43.179Z,16.00
2022-09-09T17:26:12.527Z,16.00
2022-09-09T17:28:40.697Z,16.10
2022-09-09T17:31:08.961Z,16.10
2022-09-09T17:33:37.692Z,16.10
2022-09-09T17:36:31.479Z,16.10
2022-09-09T17:39:00.782Z,16.10
2022-09-09T17:41:30.436Z,16.10
2022-09-09T17:43:58.235Z,16.20
2022-09-09T17:46:27.741Z,16.10
2022-09-09T17:48:59.704Z,16.10
2022-09-09T17:51:30.717Z,16.10
2022-09-09T17:54:02.564Z,16.00
2022-09-09T17:56:31.681Z,16.00
2022-09-09T17:58:59.672Z,15.90
2022-09-09T18:01:29.666Z,15.90
2022-09-09T18:04:01.498Z,15.80
2022-09-09T18:06:33.950Z,15.70
2022-09-09T18:09:02.771Z,15.60
2022-09-09T18:11:32.141Z,15.60
2022-09-09T18:14:00.767Z,15.50
2022-09-09T18:16:29.298Z,15.40
2022-09-09T18:18:58.498Z,15.30
2022-09-09T18:21:27.854Z,15.30
2022-09-09T18:23:55.204Z,15.20
2022-09-09T18:26:27.452Z,15.10
2022-09-09T18:28:56.865Z,15.00
2022-09-09T18:31:25.369Z,15.00
2022-09-09T18:33:53.540Z,14.90
2022-09-09T18:36:22.673Z,14.90
2022-09-09T18:38:50.339Z,14.80
2022-09-09T18:41:21.691Z,14.70
2022-09-09T18:43:50.209Z,14.70
2022-09-09T18:46:18.775Z,14.60
2022-09-09T18:48:46.878Z,14.50
2022-09-09T18:51:16.256Z,14.50
2022-09-09T18:53:43.861Z,14.50
2022-09-09T18:56:12.632Z,14.40
2022-09-09T18:58:40.397Z,14.40
2022-09-09T19:01:12.648Z,14.40
2022-09-09T19:03:40.271Z,14.40
2022-09-09T19:06:09.938Z,14.40
2022-09-09T19:08:38.157Z,14.30
2022-09-09T19:11:06.516Z,14.30
2022-09-09T19:13:33.929Z,14.40
2022-09-09T19:16:08.364Z,14.30
2022-09-09T19:18:37.007Z,14.40
2022-09-09T19:21:12.149Z,14.40
2022-09-09T19:23:40.406Z,14.40
2022-09-09T19:26:08.656Z,14.40
2022-09-09T19:28:36.285Z,14.40
2022-09-09T19:31:05.215Z,14.50
2022-09-09T19:33:33.369Z,14.50
2022-09-09T19:36:04.765Z,14.50
2022-09-09T19:38:32.623Z,14.50
2022-09-09T19:41:08.212Z,14.50
2022-09-09T19:43:35.684Z,14.50
2022-09-09T19:46:04.514Z,14.50
2022-09-09T19:48:37.422Z,14.60
2022-09-09T19:51:05.947Z,14.50
2022-09-09T19:53:36.137Z,14.50
2022-09-09T19:56:04.332Z,14.50
2022-09-09T19:58:34.856Z,14.50
2022-09-09T20:01:22.516Z,14.50
2022-09-09T20:03:54.582Z,14.50
2022-09-09T20:06:23.967Z,14.50
2022-09-09T20:08:51.274Z,14.50
2022-09-09T20:11:20.433Z,14.50
2022-09-09T20:13:49.060Z,14.40
2022-09-09T20:16:17.829Z,14.40
2022-09-09T20:18:47.018Z,14.40
2022-09-09T20:21:20.861Z,14.40
2022-09-09T20:23:49.142Z,14.40
2022-09-09T20:26:18.279Z,14.40
2022-09-09T20:28:47.023Z,14.40
2022-09-09T20:31:15.614Z,14.40
2022-09-09T20:33:43.787Z,14.40
2022-09-09T20:36:12.555Z,14.40
2022-09-09T20:38:45.258Z,14.40
2022-09-09T20:41:18.660Z,14.40
2022-09-09T20:43:48.972Z,14.40
2022-09-09T20:46:18.231Z,14.40
2022-09-09T20:48:46.853Z,14.40
2022-09-09T20:51:16.295Z,14.40
2022-09-09T20:53:44.027Z,14.40
2022-09-09T20:56:12.082Z,14.20
2022-09-09T20:58:39.603Z,14.30
2022-09-09T21:01:07.520Z,14.40
2022-09-09T21:03:39.216Z,14.40
2022-09-09T21:06:07.072Z,14.30
2022-09-09T21:08:35.118Z,14.30
2022-09-09T21:11:03.068Z,14.40
2022-09-09T21:13:31.525Z,14.30
2022-09-09T21:15:59.518Z,14.40
2022-09-09T21:18:29.985Z,14.40
2022-09-09T21:20:57.719Z,14.40
2022-09-09T21:23:25.148Z,14.40
2022-09-09T21:25:53.857Z,14.40
2022-09-09T21:28:22.056Z,14.40
2022-09-09T21:30:50.856Z,14.40
2022-09-09T21:33:19.651Z,14.40
2022-09-09T21:35:47.209Z,14.40
2022-09-09T21:38:17.508Z,14.40
2022-09-09T21:40:45.250Z,14.30
2022-09-09T21:43:14.248Z,14.30
2022-09-09T21:45:42.018Z,14.30
2022-09-09T21:48:10.600Z,14.20
2022-09-09T21:50:38.772Z,14.20
2022-09-09T21:53:07.312Z,14.10
2022-09-09T21:55:35.586Z,14.10
2022-09-09T21:58:03.976Z,14.10
2022-09-09T22:00:31.475Z,14.00
2022-09-09T22:02:59.305Z,14.00
2022-09-09T22:05:26.783Z,13.90
2022-09-09T22:07:54.355Z,13.90
2022-09-09T22:10:22.232Z,13.90
2022-09-09T22:12:50.009Z,13.90
2022-09-09T22:15:17.507Z,13.80
2022-09-09T22:17:44.824Z,13.80
2022-09-09T22:20:12.567Z,13.80
2022-09-09T22:22:39.949Z,13.80
2022-09-09T22:25:07.712Z,13.70
2022-09-09T22:27:35.753Z,13.70
2022-09-09T22:30:03.531Z,13.70
2022-09-09T22:32:31.286Z,13.70
2022-09-09T22:34:58.973Z,13.60
2022-09-09T22:37:26.444Z,13.60
2022-09-09T22:39:53.855Z,13.60
2022-09-09T22:42:22.782Z,13.60
2022-09-09T22:44:50.141Z,13.60
2022-09-09T22:47:17.606Z,13.60
2022-09-09T22:49:45.147Z,13.50
2022-09-09T22:52:12.772Z,13.50
2022-09-09T22:54:41.344Z,13.50
2022-09-09T22:57:09.563Z,13.50
2022-09-09T22:59:36.966Z,13.50
2022-09-09T23:02:04.377Z,13.40
2022-09-09T23:04:31.720Z,13.30
2022-09-09T23:06:59.796Z,13.30
2022-09-09T23:09:27.381Z,13.30
2022-09-09T23:11:57.688Z,13.30
2022-09-09T23:14:25.122Z,13.30
2022-09-09T23:16:52.759Z,13.30
2022-09-09T23:19:21.843Z,13.30
2022-09-09T23:21:50.394Z,13.30
2022-09-09T23:24:19.072Z,13.30
2022-09-09T23:26:47.634Z,13.40
2022-09-09T23:29:15.068Z,13.40
2022-09-09T23:31:44.974Z,13.40
2022-09-09T23:34:13.101Z,13.40
2022-09-09T23:36:41.577Z,13.40
2022-09-09T23:39:09.582Z,13.40
2022-09-09T23:41:37.480Z,13.40
2022-09-09T23:44:04.969Z,13.40
2022-09-09T23:46:33.226Z,13.40
2022-09-09T23:49:02.445Z,13.40
2022-09-09T23:51:31.065Z,13.50
2022-09-09T23:54:00.494Z,13.40
2022-09-09T23:56:29.993Z,13.50
2022-09-09T23:58:57.396Z,13.50
